Time;durP1;ratioP1;P1;durP2;ratioP2;P2;SDS_P1;SDS_P2;PMS_P1;PMS_P2;Temp;Humidity;BMP_temperature;BMP_pressure;BME280_temperature;BME280_humidity;BME280_pressure;Samples;Min_cycle;Max_cycle;Signal;HPM_P1;HPM_P2
2022/10/22 00:01:42;;;;;;;16.73;10.17;;;11.70;99.90;;;;;;5009353;28;20206;-75
2022/10/22 00:04:09;;;;;;;19.67;10.67;;;11.70;99.90;;;;;;5009069;28;20223;-76
2022/10/22 00:06:38;;;;;;;23.90;12.17;;;11.80;99.90;;;;;;5011525;28;20313;-76
2022/10/22 00:09:05;;;;;;;23.10;14.07;;;11.70;99.90;;;;;;5012583;28;20195;-75
2022/10/22 00:11:33;;;;;;;25.27;13.30;;;11.80;99.90;;;;;;5009691;28;20215;-75
2022/10/22 00:14:00;;;;;;;20.53;11.93;;;11.80;99.90;;;;;;5010082;28;20264;-76
2022/10/22 00:16:27;;;;;;;17.80;10.90;;;11.70;99.90;;;;;;5006849;28;20290;-75
2022/10/22 00:18:55;;;;;;;21.07;12.73;;;11.80;99.90;;;;;;5010628;28;20195;-76
2022/10/22 00:21:22;;;;;;;26.57;13.77;;;11.80;99.90;;;;;;5009413;28;20205;-75
2022/10/22 00:23:51;;;;;;;25.73;15.07;;;11.80;99.90;;;;;;5009771;28;20194;-76
2022/10/22 00:26:18;;;;;;;25.83;13.83;;;11.80;99.90;;;;;;5008176;28;20207;-76
2022/10/22 00:28:45;;;;;;;22.23;13.50;;;11.80;99.90;;;;;;5005445;28;20194;-76
2022/10/22 00:31:14;;;;;;;17.70;11.00;;;11.80;99.90;;;;;;5007671;28;20204;-75
2022/10/22 00:33:42;;;;;;;18.20;10.67;;;11.80;99.90;;;;;;5008099;28;20219;-75
2022/10/22 00:36:09;;;;;;;19.60;11.67;;;11.80;99.90;;;;;;5006951;28;20212;-76
2022/10/22 00:38:36;;;;;;;22.23;12.27;;;11.80;99.90;;;;;;5008988;28;20202;-76
2022/10/22 00:41:05;;;;;;;25.57;13.27;;;11.80;99.90;;;;;;5007603;28;20227;-76
2022/10/22 00:43:33;;;;;;;23.03;12.80;;;11.80;99.90;;;;;;5008195;28;20195;-76
2022/10/22 00:46:00;;;;;;;24.17;13.10;;;11.80;99.90;;;;;;5008564;28;20197;-76
2022/10/22 00:48:30;;;;;;;19.80;11.60;;;11.80;99.90;;;;;;5007040;28;20298;-75
2022/10/22 00:51:01;;;;;;;21.93;12.27;;;11.80;99.90;;;;;;5008476;28;20285;-76
2022/10/22 00:53:32;;;;;;;19.17;11.47;;;11.80;99.90;;;;;;5008568;28;20214;-76
2022/10/22 00:55:59;;;;;;;18.50;11.13;;;11.80;99.90;;;;;;5007484;28;20663;-76
2022/10/22 00:58:31;;;;;;;18.37;10.57;;;11.80;99.90;;;;;;5007973;28;20205;-74
2022/10/22 01:00:58;;;;;;;22.57;12.03;;;11.80;99.90;;;;;;5007845;28;21030;-75
2022/10/22 01:03:25;;;;;;;23.23;12.47;;;11.80;99.90;;;;;;5009618;28;20195;-75
2022/10/22 01:05:57;;;;;;;30.37;14.77;;;11.80;99.90;;;;;;5007558;28;20404;-76
2022/10/22 01:08:32;;;;;;;22.37;13.57;;;11.80;99.90;;;;;;5008550;28;20540;-76
2022/10/22 01:11:13;;;;;;;19.53;12.67;;;11.80;99.90;;;;;;5010130;28;20201;-76
2022/10/22 01:13:52;;;;;;;23.53;13.27;;;11.80;99.90;;;;;;5009051;28;20205;-76
2022/10/22 01:16:28;;;;;;;24.50;13.93;;;11.80;99.90;;;;;;5008962;28;20737;-76
2022/10/22 01:19:05;;;;;;;22.57;13.53;;;11.80;99.90;;;;;;5009552;28;20191;-76
2022/10/22 01:21:36;;;;;;;20.10;12.87;;;11.70;99.90;;;;;;5004713;28;20250;-76
2022/10/22 01:24:47;;;;;;;19.07;11.53;;;11.70;99.90;;;;;;5010011;28;20191;-76
2022/10/22 01:27:30;;;;;;;14.93;9.93;;;11.80;99.90;;;;;;5007493;28;20191;-76
2022/10/22 01:30:02;;;;;;;17.60;9.67;;;11.80;99.90;;;;;;5008620;28;20527;-76
2022/10/22 01:32:35;;;;;;;17.03;11.33;;;11.80;99.90;;;;;;5009846;28;20194;-76
2022/10/22 01:35:06;;;;;;;18.30;11.40;;;11.80;99.90;;;;;;5008634;28;20207;-77
2022/10/22 01:37:37;;;;;;;13.10;8.57;;;11.80;99.90;;;;;;5009117;28;20271;-76
2022/10/22 01:40:07;;;;;;;18.87;11.87;;;11.80;99.90;;;;;;5009518;28;20207;-76
2022/10/22 01:42:35;;;;;;;22.43;13.30;;;11.80;99.90;;;;;;5009248;28;20257;-76
2022/10/22 01:45:10;;;;;;;22.33;13.30;;;11.80;99.90;;;;;;5007944;28;20183;-77
2022/10/22 01:47:48;;;;;;;22.33;13.20;;;11.80;99.90;;;;;;5012292;28;20559;-79
2022/10/22 01:50:32;;;;;;;21.37;13.00;;;11.80;99.90;;;;;;5013794;28;20200;-76
2022/10/22 01:53:19;;;;;;;24.17;13.97;;;11.70;99.90;;;;;;5013124;28;20272;-76
2022/10/22 01:56:03;;;;;;;23.73;14.07;;;11.70;99.90;;;;;;5009859;28;20494;-76
2022/10/22 01:58:39;;;;;;;22.97;14.03;;;11.60;99.90;;;;;;5010574;28;20202;-76
2022/10/22 02:01:14;;;;;;;23.43;13.03;;;11.60;99.90;;;;;;5012307;28;20612;-76
2022/10/22 02:03:48;;;;;;;21.77;13.23;;;11.60;99.90;;;;;;5011277;28;20202;-76
2022/10/22 02:06:19;;;;;;;22.93;13.80;;;11.50;99.90;;;;;;5010002;28;20273;-76
2022/10/22 02:08:49;;;;;;;25.77;13.50;;;11.50;99.90;;;;;;5012687;28;20202;-76
2022/10/22 02:11:16;;;;;;;22.90;13.17;;;11.60;99.90;;;;;;5011069;28;20291;-75
2022/10/22 02:13:48;;;;;;;21.37;13.03;;;11.60;99.90;;;;;;5010624;28;20203;-76
2022/10/22 02:16:18;;;;;;;23.60;14.00;;;11.50;99.90;;;;;;5011418;28;20213;-76
2022/10/22 02:18:47;;;;;;;24.63;14.10;;;11.50;99.90;;;;;;5012236;28;20223;-76
2022/10/22 02:21:15;;;;;;;22.90;14.43;;;11.50;99.90;;;;;;5011300;28;20257;-76
2022/10/22 02:23:43;;;;;;;26.27;14.70;;;11.60;99.90;;;;;;5012218;28;20197;-76
2022/10/22 02:26:19;;;;;;;27.10;15.03;;;11.60;99.90;;;;;;5012166;28;20198;-76
2022/10/22 02:28:57;;;;;;;23.60;15.00;;;11.50;99.90;;;;;;5010482;28;20207;-76
2022/10/22 02:31:30;;;;;;;24.97;14.63;;;11.60;99.90;;;;;;5011649;28;20199;-76
2022/10/22 02:34:03;;;;;;;27.47;14.57;;;11.60;99.90;;;;;;5009581;28;20192;-76
2022/10/22 02:36:31;;;;;;;26.77;14.30;;;11.60;99.90;;;;;;5006813;28;20199;-76
2022/10/22 02:39:00;;;;;;;22.50;13.63;;;11.50;99.90;;;;;;5010870;28;20195;-76
2022/10/22 02:41:27;;;;;;;18.30;10.17;;;11.60;99.90;;;;;;5012198;28;20200;-76
2022/10/22 02:43:56;;;;;;;15.43;9.47;;;11.60;99.90;;;;;;5011810;28;20560;-75
2022/10/22 02:46:25;;;;;;;11.33;7.97;;;11.60;99.90;;;;;;5009300;28;20653;-76
2022/10/22 02:48:52;;;;;;;10.33;6.87;;;11.70;99.90;;;;;;5010437;28;20202;-75
2022/10/22 02:51:20;;;;;;;12.40;8.10;;;11.70;99.90;;;;;;5010777;28;20667;-75
2022/10/22 02:53:47;;;;;;;16.67;9.83;;;11.70;99.90;;;;;;5010630;28;20202;-76
2022/10/22 02:56:14;;;;;;;15.93;9.70;;;11.80;99.90;;;;;;5009760;28;20209;-75
2022/10/22 02:58:41;;;;;;;14.70;10.00;;;11.80;99.90;;;;;;5010149;28;20214;-76
2022/10/22 03:01:08;;;;;;;16.93;11.10;;;11.80;99.90;;;;;;5011234;28;20222;-76
2022/10/22 03:03:37;;;;;;;14.13;9.47;;;11.80;99.90;;;;;;5010068;28;20298;-76
2022/10/22 03:06:04;;;;;;;12.13;7.93;;;11.80;99.90;;;;;;5011000;28;20718;-76
2022/10/22 03:08:32;;;;;;;12.73;7.87;;;11.80;99.90;;;;;;5011540;28;20529;-75
2022/10/22 03:10:59;;;;;;;9.67;6.63;;;11.80;99.90;;;;;;5010033;28;20203;-76
2022/10/22 03:13:26;;;;;;;8.70;6.20;;;11.80;99.90;;;;;;5011189;28;20191;-75
2022/10/22 03:15:53;;;;;;;7.80;5.83;;;11.80;99.90;;;;;;5009252;28;20710;-75
2022/10/22 03:18:20;;;;;;;11.17;6.70;;;11.90;99.90;;;;;;5009523;28;20194;-75
2022/10/22 03:20:49;;;;;;;8.80;6.30;;;11.90;99.90;;;;;;5009312;28;20274;-75
2022/10/22 03:23:19;;;;;;;7.37;5.67;;;11.90;99.90;;;;;;5010275;28;20198;-75
2022/10/22 03:25:48;;;;;;;9.70;6.17;;;11.90;99.90;;;;;;5010305;28;20193;-75
2022/10/22 03:28:17;;;;;;;10.77;7.37;;;11.90;99.90;;;;;;5009393;28;20242;-75
2022/10/22 03:30:44;;;;;;;9.53;7.00;;;11.90;99.90;;;;;;5010444;28;20203;-75
2022/10/22 03:33:12;;;;;;;9.63;6.57;;;11.90;99.90;;;;;;5010683;28;20569;-75
2022/10/22 03:35:43;;;;;;;9.70;6.90;;;11.90;99.90;;;;;;5010091;28;20206;-75
2022/10/22 03:38:13;;;;;;;14.90;9.20;;;11.90;99.90;;;;;;5010746;28;20280;-75
2022/10/22 03:40:41;;;;;;;14.53;9.40;;;11.90;99.90;;;;;;5006838;28;20224;-75
2022/10/22 03:43:08;;;;;;;14.50;9.50;;;11.90;99.90;;;;;;5009539;28;20754;-75
2022/10/22 03:45:35;;;;;;;12.20;8.00;;;11.90;99.90;;;;;;5008809;28;20209;-75
2022/10/22 03:48:02;;;;;;;13.27;8.77;;;11.90;99.90;;;;;;5010815;28;20192;-75
2022/10/22 03:50:30;;;;;;;12.47;8.20;;;11.90;99.90;;;;;;5009358;28;20199;-75
2022/10/22 03:52:58;;;;;;;9.93;7.13;;;11.90;99.90;;;;;;5010552;28;20198;-75
2022/10/22 03:55:27;;;;;;;8.90;6.50;;;11.90;99.90;;;;;;5010243;28;20235;-75
2022/10/22 03:57:54;;;;;;;8.37;6.13;;;11.90;99.90;;;;;;5008183;28;20297;-75
2022/10/22 04:00:22;;;;;;;8.40;6.00;;;11.90;99.90;;;;;;5008628;28;20195;-75
2022/10/22 04:02:49;;;;;;;8.10;6.07;;;11.90;99.90;;;;;;5010090;28;20205;-76
2022/10/22 04:05:16;;;;;;;10.53;6.77;;;11.90;99.90;;;;;;5006799;28;20227;-76
2022/10/22 04:07:43;;;;;;;12.10;7.83;;;11.90;99.90;;;;;;5008913;28;20664;-76
2022/10/22 04:10:10;;;;;;;9.63;6.90;;;11.90;99.90;;;;;;5008244;28;20568;-74
2022/10/22 04:12:39;;;;;;;9.27;6.27;;;11.90;99.90;;;;;;5007234;28;20564;-75
2022/10/22 04:15:07;;;;;;;9.87;5.93;;;11.90;99.90;;;;;;5007890;28;20215;-75
2022/10/22 04:17:36;;;;;;;9.40;6.67;;;11.90;99.90;;;;;;5010188;28;20690;-75
2022/10/22 04:20:04;;;;;;;10.33;7.20;;;11.90;99.90;;;;;;5008822;28;20198;-75
2022/10/22 04:22:33;;;;;;;18.53;10.67;;;11.90;99.90;;;;;;5009755;28;20190;-75
2022/10/22 04:25:01;;;;;;;19.77;11.00;;;11.90;99.90;;;;;;5009722;28;20230;-74
2022/10/22 04:27:31;;;;;;;15.97;9.77;;;11.90;99.90;;;;;;5009863;28;20206;-74
2022/10/22 04:29:59;;;;;;;17.53;10.90;;;11.90;99.90;;;;;;5008988;28;20264;-74
2022/10/22 04:32:27;;;;;;;16.07;10.60;;;11.80;99.90;;;;;;5008534;28;20221;-74
2022/10/22 04:34:54;;;;;;;17.10;10.63;;;11.80;99.90;;;;;;5007297;28;20209;-74
2022/10/22 04:37:21;;;;;;;12.17;8.13;;;11.80;99.90;;;;;;5009653;28;20207;-74
2022/10/22 04:39:48;;;;;;;8.67;6.57;;;11.90;99.90;;;;;;5010560;28;20207;-75
2022/10/22 04:42:16;;;;;;;12.77;7.80;;;11.90;99.90;;;;;;5010268;28;20249;-75
2022/10/22 04:44:43;;;;;;;14.93;8.10;;;11.90;99.90;;;;;;5007768;28;20201;-75
2022/10/22 04:47:11;;;;;;;16.63;10.20;;;11.80;99.90;;;;;;5009859;28;20195;-76
2022/10/22 04:49:39;;;;;;;22.67;12.47;;;11.80;99.90;;;;;;5008978;28;20689;-75
2022/10/22 04:52:06;;;;;;;18.00;10.77;;;11.80;99.90;;;;;;5008214;28;20207;-75
2022/10/22 04:54:33;;;;;;;13.30;8.53;;;11.80;99.90;;;;;;5010132;28;20201;-75
2022/10/22 04:57:00;;;;;;;12.23;8.30;;;11.80;99.90;;;;;;5009243;28;20667;-75
2022/10/22 04:59:27;;;;;;;14.33;9.43;;;11.80;99.90;;;;;;5008732;28;20206;-75
2022/10/22 05:01:55;;;;;;;21.23;12.13;;;11.80;99.90;;;;;;5009274;28;20202;-75
2022/10/22 05:04:23;;;;;;;23.40;13.30;;;11.80;99.90;;;;;;5009465;28;20254;-75
2022/10/22 05:06:51;;;;;;;14.90;9.67;;;11.80;99.90;;;;;;5007717;28;20217;-75
2022/10/22 05:09:20;;;;;;;14.30;8.90;;;11.70;99.90;;;;;;5007581;28;20273;-75
2022/10/22 05:11:49;;;;;;;15.20;10.17;;;11.80;99.90;;;;;;5010438;28;20223;-75
2022/10/22 05:14:18;;;;;;;13.63;8.77;;;11.80;99.90;;;;;;5008879;28;20202;-74
2022/10/22 05:16:47;;;;;;;16.43;10.10;;;11.80;99.90;;;;;;5009042;28;20239;-74
2022/10/22 05:19:18;;;;;;;11.83;8.63;;;12.40;99.90;;;;;;5009266;28;20221;-74
2022/10/22 05:21:47;;;;;;;17.37;9.97;;;11.80;99.90;;;;;;5007251;28;20314;-74
2022/10/22 05:24:14;;;;;;;17.27;9.37;;;11.80;99.90;;;;;;5013565;28;20209;-75
2022/10/22 05:26:42;;;;;;;14.30;9.27;;;11.80;99.90;;;;;;5013369;28;20184;-75
2022/10/22 05:29:09;;;;;;;17.20;10.03;;;11.80;99.90;;;;;;5011581;28;20202;-75
2022/10/22 05:31:37;;;;;;;16.67;10.30;;;11.80;99.90;;;;;;5012942;28;20683;-75
2022/10/22 05:34:04;;;;;;;20.10;11.50;;;11.80;99.90;;;;;;5009923;28;20211;-75
2022/10/22 05:36:32;;;;;;;14.13;9.03;;;11.80;99.90;;;;;;5011527;28;20687;-74
2022/10/22 05:39:01;;;;;;;10.37;7.07;;;11.80;99.90;;;;;;5012998;28;20207;-74
2022/10/22 05:41:28;;;;;;;16.23;9.73;;;11.80;99.90;;;;;;5011694;28;20710;-75
2022/10/22 05:43:56;;;;;;;13.13;8.50;;;11.90;99.90;;;;;;5012511;28;20191;-75
2022/10/22 05:46:26;;;;;;;11.37;7.23;;;11.90;99.90;;;;;;5012372;28;20202;-75
2022/10/22 05:48:54;;;;;;;11.10;7.17;;;11.90;99.90;;;;;;5012595;28;20199;-76
2022/10/22 05:51:23;;;;;;;11.77;7.13;;;11.90;99.90;;;;;;5011748;28;20222;-76
2022/10/22 05:53:53;;;;;;;16.13;8.53;;;11.90;99.90;;;;;;5012793;28;20251;-75
2022/10/22 05:56:22;;;;;;;11.37;8.07;;;11.90;99.90;;;;;;5011961;28;20213;-75
2022/10/22 05:58:50;;;;;;;14.33;9.13;;;11.90;99.90;;;;;;5011664;28;20205;-75
2022/10/22 06:01:19;;;;;;;16.10;8.60;;;11.90;99.90;;;;;;5012676;28;20209;-74
2022/10/22 06:03:47;;;;;;;15.83;8.80;;;11.90;99.90;;;;;;5010255;28;20208;-74
2022/10/22 06:06:21;;;;;;;14.00;9.07;;;11.90;99.90;;;;;;5011840;28;20215;-75
2022/10/22 06:08:50;;;;;;;11.70;8.23;;;11.80;99.90;;;;;;5008681;28;20695;-75
2022/10/22 06:11:19;;;;;;;14.33;8.53;;;11.80;99.90;;;;;;5011070;28;20207;-74
2022/10/22 06:13:48;;;;;;;17.00;10.07;;;11.80;99.90;;;;;;5010599;28;20310;-75
2022/10/22 06:16:16;;;;;;;25.17;13.03;;;11.80;99.90;;;;;;5012134;28;20203;-75
2022/10/22 06:18:43;;;;;;;19.60;11.97;;;11.80;99.90;;;;;;5009750;28;20263;-75
2022/10/22 06:21:12;;;;;;;20.30;12.47;;;11.80;99.90;;;;;;5012994;28;20209;-75
2022/10/22 06:23:40;;;;;;;20.63;12.83;;;11.80;99.90;;;;;;5013666;28;20199;-75
2022/10/22 06:26:09;;;;;;;23.60;14.23;;;11.80;99.90;;;;;;5013190;28;20190;-75
2022/10/22 06:28:37;;;;;;;23.47;13.73;;;11.80;99.90;;;;;;5010647;28;20573;-75
2022/10/22 06:31:06;;;;;;;33.10;18.63;;;11.80;99.90;;;;;;5008192;28;20215;-75
2022/10/22 06:33:41;;;;;;;26.40;15.30;;;11.80;99.90;;;;;;5009097;28;20198;-75
2022/10/22 06:36:14;;;;;;;26.63;15.50;;;11.80;99.90;;;;;;5010639;28;20481;-75
2022/10/22 06:38:41;;;;;;;28.80;14.60;;;11.90;99.90;;;;;;5009653;28;20567;-75
2022/10/22 06:41:11;;;;;;;23.47;12.10;;;11.80;99.90;;;;;;5012046;28;20206;-75
2022/10/22 06:43:38;;;;;;;16.50;9.87;;;11.90;99.90;;;;;;5009804;28;20566;-75
2022/10/22 06:46:09;;;;;;;16.83;10.57;;;11.90;99.90;;;;;;5009921;28;20188;-75
2022/10/22 06:48:38;;;;;;;18.10;12.20;;;11.90;99.90;;;;;;5008309;28;20213;-75
2022/10/22 06:51:07;;;;;;;17.20;10.50;;;11.90;99.90;;;;;;5010505;28;20214;-75
2022/10/22 06:53:36;;;;;;;20.63;11.20;;;11.90;99.90;;;;;;5009523;28;20199;-75
2022/10/22 06:56:06;;;;;;;23.37;13.87;;;11.90;99.90;;;;;;5011611;28;21033;-76
2022/10/22 06:58:33;;;;;;;21.30;13.43;;;11.90;99.90;;;;;;5011331;28;20548;-75
2022/10/22 07:01:04;;;;;;;24.93;14.80;;;11.90;99.90;;;;;;5010387;28;20288;-75
2022/10/22 07:03:32;;;;;;;20.27;13.50;;;11.90;99.90;;;;;;5011570;28;20206;-75
2022/10/22 07:06:00;;;;;;;25.97;13.77;;;11.90;99.90;;;;;;5011109;28;20222;-75
2022/10/22 07:08:28;;;;;;;24.77;14.13;;;11.90;99.90;;;;;;5009404;28;20231;-76
2022/10/22 07:10:57;;;;;;;25.17;15.53;;;11.90;99.90;;;;;;5009654;28;20215;-77
2022/10/22 07:13:24;;;;;;;26.23;14.53;;;11.90;99.90;;;;;;5009201;28;20286;-76
2022/10/22 07:15:55;;;;;;;23.23;13.17;;;11.90;99.90;;;;;;5009017;28;20211;-76
2022/10/22 07:18:22;;;;;;;20.97;12.23;;;11.90;99.90;;;;;;5009397;28;20203;-75
2022/10/22 07:20:51;;;;;;;26.13;14.50;;;12.00;99.90;;;;;;5008622;28;20208;-76
2022/10/22 07:23:18;;;;;;;21.63;11.23;;;12.00;99.90;;;;;;5008611;28;20191;-75
2022/10/22 07:25:45;;;;;;;17.33;10.43;;;12.00;99.90;;;;;;5010785;28;20199;-76
2022/10/22 07:28:13;;;;;;;22.57;13.90;;;12.00;99.90;;;;;;5008915;28;20203;-76
2022/10/22 07:30:41;;;;;;;18.97;11.97;;;12.10;99.90;;;;;;5009236;28;20195;-75
2022/10/22 07:33:08;;;;;;;19.87;12.47;;;12.10;99.90;;;;;;5008032;28;20672;-75
2022/10/22 07:35:38;;;;;;;23.80;13.23;;;12.10;99.90;;;;;;5008800;28;20202;-75
2022/10/22 07:38:07;;;;;;;18.60;12.40;;;12.00;99.90;;;;;;5009294;28;20282;-75
2022/10/22 07:40:35;;;;;;;14.03;9.50;;;12.00;99.90;;;;;;5009544;28;20214;-75
2022/10/22 07:43:03;;;;;;;16.33;9.47;;;12.10;99.90;;;;;;5009614;28;20226;-75
2022/10/22 07:45:30;;;;;;;12.83;8.47;;;12.10;99.90;;;;;;5009770;28;20194;-76
2022/10/22 07:47:58;;;;;;;14.00;8.97;;;12.10;99.90;;;;;;5009797;28;20202;-75
2022/10/22 07:50:25;;;;;;;19.77;11.37;;;12.10;99.90;;;;;;5009051;28;20579;-75
2022/10/22 07:52:52;;;;;;;20.90;12.60;;;12.10;99.90;;;;;;5007577;28;20227;-75
2022/10/22 07:55:21;;;;;;;18.23;10.50;;;12.10;99.90;;;;;;5008111;28;20217;-75
2022/10/22 07:57:48;;;;;;;19.60;11.50;;;12.20;99.90;;;;;;5007834;28;20211;-76
2022/10/22 08:00:16;;;;;;;25.73;15.23;;;12.20;99.90;;;;;;5009933;28;20191;-75
2022/10/22 08:02:46;;;;;;;32.40;16.93;;;12.20;99.90;;;;;;5011380;28;20286;-75
2022/10/22 08:05:13;;;;;;;26.97;15.47;;;12.20;99.90;;;;;;5008137;28;20591;-75
2022/10/22 08:07:41;;;;;;;30.20;17.00;;;12.20;99.90;;;;;;5010737;28;20184;-75
2022/10/22 08:10:09;;;;;;;28.40;16.47;;;12.20;99.90;;;;;;5010103;28;20199;-76
2022/10/22 08:12:38;;;;;;;29.70;17.23;;;12.20;99.90;;;;;;5008844;28;20211;-75
2022/10/22 08:15:06;;;;;;;28.77;16.63;;;12.20;99.90;;;;;;5007754;28;20548;-75
2022/10/22 08:17:33;;;;;;;27.60;16.07;;;12.20;99.90;;;;;;5009876;28;20227;-75
2022/10/22 08:20:01;;;;;;;20.43;12.90;;;12.20;99.90;;;;;;5008757;28;20425;-75
2022/10/22 08:22:28;;;;;;;19.60;12.53;;;12.20;99.90;;;;;;5010086;28;20223;-75
2022/10/22 08:24:55;;;;;;;20.97;13.30;;;12.30;99.90;;;;;;5006093;28;20223;-75
2022/10/22 08:27:22;;;;;;;20.67;12.83;;;12.30;99.90;;;;;;5009187;28;20290;-75
2022/10/22 08:29:51;;;;;;;17.87;11.57;;;12.40;99.90;;;;;;5009041;28;20200;-75
2022/10/22 08:32:18;;;;;;;19.87;12.90;;;12.40;99.90;;;;;;5006519;28;20203;-75
2022/10/22 08:34:45;;;;;;;18.10;11.93;;;12.40;99.90;;;;;;5009168;28;20559;-76
2022/10/22 08:37:13;;;;;;;27.43;16.03;;;12.50;99.90;;;;;;5007952;28;20560;-76
2022/10/22 08:39:40;;;;;;;23.53;15.30;;;12.50;99.90;;;;;;5007585;28;20675;-77
2022/10/22 08:42:32;;;;;;;21.20;13.37;;;12.50;99.90;;;;;;5008860;28;20231;-76
2022/10/22 08:45:08;;;;;;;24.70;14.80;;;12.50;99.90;;;;;;5008537;28;20678;-76
2022/10/22 08:47:57;;;;;;;22.00;13.13;;;12.50;99.90;;;;;;5008409;28;20196;-76
2022/10/22 08:50:31;;;;;;;18.63;11.40;;;12.50;99.90;;;;;;5006186;28;20192;-76
2022/10/22 08:53:02;;;;;;;17.50;10.03;;;12.50;99.90;;;;;;5009700;28;20199;-76
2022/10/22 08:55:31;;;;;;;19.90;13.30;;;12.50;99.90;;;;;;5007244;28;20247;-76
2022/10/22 08:58:04;;;;;;;19.13;11.63;;;12.50;99.90;;;;;;5009914;28;20769;-76
2022/10/22 09:00:37;;;;;;;16.17;10.37;;;12.50;99.90;;;;;;5011823;28;20203;-76
2022/10/22 09:03:25;;;;;;;19.47;11.90;;;12.60;99.90;;;;;;5012724;28;20230;-77
2022/10/22 09:06:02;;;;;;;23.90;14.67;;;12.60;99.90;;;;;;5010899;28;20230;-76
2022/10/22 09:08:30;;;;;;;23.27;13.80;;;12.60;99.90;;;;;;5013386;28;20192;-75
2022/10/22 09:11:02;;;;;;;25.47;15.37;;;12.60;99.90;;;;;;5012021;28;20211;-75
2022/10/22 09:13:30;;;;;;;25.13;15.20;;;12.60;99.90;;;;;;5012196;28;20191;-76
2022/10/22 09:16:01;;;;;;;21.60;13.53;;;12.60;99.90;;;;;;5013167;28;20199;-76
2022/10/22 09:18:36;;;;;;;21.20;12.57;;;12.60;99.90;;;;;;5012030;28;20219;-76
2022/10/22 09:21:10;;;;;;;18.50;11.20;;;12.60;99.90;;;;;;5012595;28;20231;-75
2022/10/22 09:23:48;;;;;;;20.23;10.57;;;12.70;99.90;;;;;;5011918;28;20198;-74
2022/10/22 09:26:16;;;;;;;14.77;9.40;;;12.70;99.90;;;;;;5011660;28;20206;-74
2022/10/22 09:28:49;;;;;;;15.23;10.30;;;12.70;99.90;;;;;;5011069;28;20672;-75
2022/10/22 09:31:18;;;;;;;21.30;13.27;;;12.70;99.90;;;;;;5011989;28;20196;-75
2022/10/22 09:33:47;;;;;;;19.50;12.27;;;12.70;99.90;;;;;;5012910;28;20273;-75
2022/10/22 09:36:17;;;;;;;14.47;10.70;;;12.70;99.90;;;;;;5012074;28;20342;-75
2022/10/22 09:38:49;;;;;;;12.90;9.37;;;12.80;99.90;;;;;;5012941;28;20191;-75
2022/10/22 09:41:19;;;;;;;14.10;8.57;;;12.80;99.90;;;;;;5010866;28;20203;-75
2022/10/22 09:43:47;;;;;;;13.97;8.40;;;12.80;99.90;;;;;;5012635;28;20195;-75
2022/10/22 09:46:19;;;;;;;13.23;8.90;;;12.80;99.90;;;;;;5012537;28;20197;-75
2022/10/22 09:48:51;;;;;;;12.60;8.80;;;12.80;99.90;;;;;;5012984;28;20192;-75
2022/10/22 09:51:20;;;;;;;23.27;15.33;;;12.80;99.90;;;;;;5010851;28;20250;-75
2022/10/22 09:53:55;;;;;;;24.17;15.10;;;12.90;99.90;;;;;;5013115;28;20226;-76
2022/10/22 09:56:26;;;;;;;21.13;13.37;;;12.90;99.90;;;;;;5012190;28;20183;-75
2022/10/22 09:58:57;;;;;;;18.40;11.90;;;12.90;99.90;;;;;;5008976;28;20192;-76
2022/10/22 10:01:28;;;;;;;18.17;12.30;;;12.90;99.90;;;;;;5012293;28;20191;-76
2022/10/22 10:04:03;;;;;;;22.63;13.40;;;12.90;99.90;;;;;;5009482;28;20219;-75
2022/10/22 10:06:34;;;;;;;24.90;16.17;;;12.90;99.90;;;;;;5011404;28;20199;-76
2022/10/22 10:09:04;;;;;;;27.60;16.40;;;13.00;99.90;;;;;;5010246;28;20200;-75
2022/10/22 10:11:37;;;;;;;21.20;14.07;;;13.00;99.90;;;;;;5013015;28;20196;-76
2022/10/22 10:14:14;;;;;;;19.33;12.50;;;13.00;99.90;;;;;;5012415;28;20201;-76
2022/10/22 10:16:52;;;;;;;17.23;11.00;;;13.00;99.90;;;;;;5012333;28;20206;-76
2022/10/22 10:19:39;;;;;;;16.37;10.83;;;13.00;99.90;;;;;;5010690;28;20204;-75
2022/10/22 10:22:17;;;;;;;23.93;15.40;;;13.10;99.90;;;;;;5011633;28;20232;-76
2022/10/22 10:25:01;;;;;;;25.53;14.97;;;13.10;99.90;;;;;;5012271;28;20217;-75
2022/10/22 10:27:35;;;;;;;19.43;12.30;;;13.20;99.90;;;;;;5012329;28;20203;-76
2022/10/22 10:30:06;;;;;;;19.20;11.50;;;13.20;99.90;;;;;;5009557;28;20219;-75
2022/10/22 10:33:01;;;;;;;22.47;13.90;;;13.30;99.90;;;;;;5009847;28;20207;-76
2022/10/22 10:35:36;;;;;;;27.17;15.80;;;13.30;99.90;;;;;;5010822;28;20678;-76
2022/10/22 10:38:16;;;;;;;25.63;15.20;;;13.30;99.90;;;;;;5010282;28;20646;-76
2022/10/22 10:40:50;;;;;;;21.27;13.63;;;13.40;99.90;;;;;;5012194;28;20193;-75
2022/10/22 10:43:25;;;;;;;18.27;10.73;;;13.40;99.90;;;;;;5012025;28;20834;-76
2022/10/22 10:46:06;;;;;;;21.63;11.17;;;13.40;99.90;;;;;;5010486;28;20205;-76
2022/10/22 10:48:50;;;;;;;16.73;11.20;;;13.40;99.90;;;;;;5012519;28;20193;-77
2022/10/22 10:51:40;;;;;;;14.87;9.53;;;13.50;99.90;;;;;;5009923;28;20196;-75
2022/10/22 10:54:27;;;;;;;14.27;9.60;;;13.60;99.90;;;;;;5010761;28;20192;-75
2022/10/22 10:56:58;;;;;;;17.17;9.97;;;13.60;99.90;;;;;;5009848;28;20201;-75
2022/10/22 10:59:54;;;;;;;10.23;7.40;;;13.60;99.90;;;;;;5009833;28;20559;-74
2022/10/22 11:02:53;;;;;;;16.13;10.50;;;13.70;99.90;;;;;;5009560;28;20213;-76
2022/10/22 11:05:38;;;;;;;13.37;9.00;;;13.80;99.90;;;;;;5010846;28;20589;-76
2022/10/22 11:08:13;;;;;;;30.30;17.67;;;13.80;99.90;;;;;;5011205;28;20190;-75
2022/10/22 11:10:44;;;;;;;19.37;12.80;;;13.80;99.90;;;;;;5008860;28;20211;-76
2022/10/22 11:13:18;;;;;;;26.40;16.20;;;13.80;99.90;;;;;;5009511;28;20194;-76
2022/10/22 11:15:50;;;;;;;19.20;12.17;;;13.80;99.90;;;;;;5010999;28;20200;-74
2022/10/22 11:18:24;;;;;;;17.97;11.20;;;13.80;99.90;;;;;;5010167;28;20213;-76
2022/10/22 11:21:01;;;;;;;14.07;8.93;;;14.00;99.90;;;;;;5006822;28;20202;-76
2022/10/22 11:23:34;;;;;;;12.17;8.30;;;13.90;99.90;;;;;;5008734;28;20730;-76
2022/10/22 11:26:02;;;;;;;13.97;8.43;;;13.90;99.90;;;;;;5009609;28;20203;-75
2022/10/22 11:28:33;;;;;;;10.10;7.03;;;13.90;99.90;;;;;;5009390;28;20193;-75
2022/10/22 11:31:08;;;;;;;9.07;6.60;;;14.00;99.90;;;;;;5009445;28;20206;-75
2022/10/22 11:33:46;;;;;;;8.70;6.43;;;13.90;99.90;;;;;;5009194;28;20593;-75
2022/10/22 11:36:15;;;;;;;12.10;8.10;;;14.00;99.90;;;;;;5010081;28;20535;-75
2022/10/22 11:38:42;;;;;;;8.60;6.47;;;14.00;99.90;;;;;;5010860;28;20198;-75
2022/10/22 11:41:22;;;;;;;8.30;6.40;;;14.70;99.90;;;;;;5118463;27;20529;-63
2022/10/22 11:43:57;;;;;;;9.37;6.50;;;14.00;99.90;;;;;;5083199;28;20199;-62
2022/10/22 11:46:35;;;;;;;8.40;6.50;;;14.10;99.90;;;;;;5082836;28;20536;-63
2022/10/22 11:49:15;;;;;;;8.30;6.17;;;14.10;99.90;;;;;;5083312;28;20188;-63
2022/10/22 11:51:45;;;;;;;11.27;7.67;;;14.10;99.90;;;;;;5079552;28;20188;-63
2022/10/22 11:54:41;;;;;;;8.23;5.67;;;14.10;99.90;;;;;;5083315;28;20197;-62
2022/10/22 11:57:23;;;;;;;10.03;6.03;;;14.10;99.90;;;;;;5081927;28;20294;-62
2022/10/22 11:59:53;;;;;;;9.57;6.23;;;14.10;99.90;;;;;;5078355;28;20207;-63
2022/10/22 12:02:41;;;;;;;9.77;6.83;;;14.10;99.90;;;;;;5082862;28;20197;-63
2022/10/22 12:05:32;;;;;;;10.87;6.67;;;14.10;99.90;;;;;;5083790;28;20555;-63
2022/10/22 12:08:03;;;;;;;9.97;6.57;;;14.10;99.90;;;;;;5086081;28;20354;-64
2022/10/22 12:10:37;;;;;;;8.90;6.07;;;14.10;99.90;;;;;;5083425;28;20196;-63
2022/10/22 12:13:13;;;;;;;7.37;5.23;;;14.10;99.90;;;;;;5084445;28;20192;-62
2022/10/22 12:15:48;;;;;;;7.30;5.17;;;14.10;99.90;;;;;;5081330;28;20196;-63
2022/10/22 12:18:17;;;;;;;5.33;4.57;;;14.10;99.90;;;;;;5083186;28;20210;-63
2022/10/22 12:20:49;;;;;;;5.70;4.53;;;14.10;99.90;;;;;;5080278;28;20223;-63
2022/10/22 12:23:16;;;;;;;4.43;4.00;;;14.10;99.90;;;;;;5083405;28;20717;-63
2022/10/22 12:25:44;;;;;;;7.67;5.00;;;14.20;99.90;;;;;;5084121;28;20253;-63
2022/10/22 12:28:14;;;;;;;4.87;4.27;;;14.20;99.90;;;;;;5082108;28;20200;-62
2022/10/22 12:30:42;;;;;;;5.73;4.00;;;14.20;99.90;;;;;;5081581;28;20188;-62
2022/10/22 12:33:20;;;;;;;7.47;5.00;;;14.20;99.90;;;;;;5083139;28;20560;-62
2022/10/22 12:35:51;;;;;;;7.60;4.80;;;14.20;99.90;;;;;;5083985;28;20583;-63
2022/10/22 12:38:20;;;;;;;4.83;3.63;;;14.20;99.90;;;;;;5084952;28;21025;-63
2022/10/22 12:40:49;;;;;;;6.07;4.13;;;14.20;99.90;;;;;;5085587;28;20710;-62
2022/10/22 12:43:19;;;;;;;6.73;4.50;;;14.20;99.90;;;;;;5084566;28;20253;-62
2022/10/22 12:45:48;;;;;;;4.77;3.50;;;14.30;99.90;;;;;;5082495;28;20211;-62
2022/10/22 12:48:18;;;;;;;5.00;3.90;;;14.30;99.90;;;;;;5082438;28;20242;-62
2022/10/22 12:50:49;;;;;;;8.40;4.83;;;14.30;99.90;;;;;;5075397;28;20187;-62
2022/10/22 12:53:20;;;;;;;8.57;5.77;;;14.30;99.90;;;;;;5069634;28;20201;-62